createdAt,value
2019-01-20T00:01:34.358Z,48.83
2019-01-20T00:04:04.066Z,46.57
2019-01-20T00:06:33.676Z,49.23
2019-01-20T00:09:03.195Z,48.47
2019-01-20T00:11:32.372Z,46.70
2019-01-20T00:14:01.592Z,40.83
2019-01-20T00:16:31.108Z,44.33
2019-01-20T00:19:00.325Z,45.47
2019-01-20T00:21:29.638Z,46.83
2019-01-20T00:23:58.843Z,48.20
2019-01-20T00:26:28.028Z,43.60
2019-01-20T00:28:57.181Z,42.43
2019-01-20T00:31:26.366Z,43.63
2019-01-20T00:33:56.174Z,45.37
2019-01-20T00:36:25.342Z,43.00
2019-01-20T00:38:54.574Z,39.93
2019-01-20T00:41:24.255Z,40.10
2019-01-20T00:43:53.603Z,50.33
2019-01-20T00:46:23.108Z,42.27
2019-01-20T00:48:52.281Z,45.40
2019-01-20T00:51:21.612Z,39.60
2019-01-20T00:53:51.100Z,42.50
2019-01-20T00:56:20.389Z,49.47
2019-01-20T00:58:49.589Z,39.87
2019-01-20T01:01:18.817Z,44.93
2019-01-20T01:03:48.298Z,40.07
2019-01-20T01:06:17.968Z,39.03
2019-01-20T01:08:47.580Z,43.03
2019-01-20T01:11:17.109Z,41.47
2019-01-20T01:13:46.298Z,42.10
2019-01-20T01:16:15.481Z,41.47
2019-01-20T01:18:45.079Z,46.30
2019-01-20T01:21:15.034Z,39.77
2019-01-20T01:23:44.639Z,41.00
2019-01-20T01:26:13.801Z,47.37
2019-01-20T01:28:42.965Z,39.70
2019-01-20T01:31:12.126Z,41.37
2019-01-20T01:33:41.288Z,43.33
2019-01-20T01:36:10.554Z,41.73
2019-01-20T01:38:39.702Z,41.90
2019-01-20T01:41:08.874Z,48.53
2019-01-20T01:43:38.129Z,40.77
2019-01-20T01:46:07.764Z,43.43
2019-01-20T01:48:37.232Z,42.10
2019-01-20T01:51:06.424Z,42.77
2019-01-20T01:53:36.324Z,39.90
2019-01-20T01:56:06.204Z,41.40
2019-01-20T01:58:35.451Z,44.70
2019-01-20T02:01:05.070Z,44.13
2019-01-20T02:03:34.256Z,40.33
2019-01-20T02:06:03.494Z,42.17
2019-01-20T02:08:33.340Z,41.90
2019-01-20T02:11:02.626Z,37.90
2019-01-20T02:13:31.934Z,39.23
2019-01-20T02:16:01.081Z,38.77
2019-01-20T02:18:30.248Z,38.57
2019-01-20T02:20:59.553Z,42.70
2019-01-20T02:23:28.817Z,37.17
2019-01-20T02:25:57.997Z,39.67
2019-01-20T02:28:27.537Z,41.20
2019-01-20T02:30:56.775Z,42.87
2019-01-20T02:33:26.015Z,46.00
2019-01-20T02:35:55.199Z,43.63
2019-01-20T02:38:24.447Z,38.20
2019-01-20T02:40:53.591Z,38.20
2019-01-20T02:43:23.125Z,40.23
2019-01-20T02:45:52.300Z,42.63
2019-01-20T02:48:21.556Z,41.10
2019-01-20T02:50:50.739Z,42.33
2019-01-20T02:53:19.927Z,38.10
2019-01-20T02:55:49.182Z,44.23
2019-01-20T02:58:18.431Z,39.80
2019-01-20T03:00:47.588Z,42.10
2019-01-20T03:03:16.829Z,41.57
2019-01-20T03:05:46.040Z,42.10
2019-01-20T03:08:15.207Z,38.60
2019-01-20T03:10:44.360Z,43.50
2019-01-20T03:13:13.606Z,38.77
2019-01-20T03:15:42.778Z,41.50
2019-01-20T03:18:11.927Z,42.53
2019-01-20T03:20:41.100Z,39.07
2019-01-20T03:23:10.346Z,39.40
2019-01-20T03:25:40.061Z,39.13
2019-01-20T03:28:09.229Z,40.33
2019-01-20T03:30:38.408Z,37.63
2019-01-20T03:33:07.752Z,36.37
2019-01-20T03:35:37.260Z,39.30
2019-01-20T03:38:06.851Z,38.27
2019-01-20T03:40:36.595Z,39.73
2019-01-20T03:43:05.844Z,39.80
2019-01-20T03:45:35.048Z,37.17
2019-01-20T03:48:04.729Z,40.80
2019-01-20T03:50:33.963Z,38.17
2019-01-20T03:53:03.221Z,36.50
2019-01-20T03:55:32.631Z,40.53
2019-01-20T03:58:01.916Z,37.87
2019-01-20T04:00:31.135Z,37.80
2019-01-20T04:03:04.453Z,39.40
2019-01-20T04:05:33.646Z,38.87
2019-01-20T04:08:02.877Z,37.83
2019-01-20T04:10:32.527Z,38.63
2019-01-20T04:13:01.739Z,38.67
2019-01-20T04:15:31.065Z,37.73
2019-01-20T04:18:00.269Z,32.87
2019-01-20T04:20:29.430Z,39.87
2019-01-20T04:22:58.976Z,42.90
2019-01-20T04:25:28.548Z,39.63
2019-01-20T04:27:57.773Z,36.90
2019-01-20T04:30:27.384Z,37.33
2019-01-20T04:32:56.974Z,37.17
2019-01-20T04:35:26.476Z,38.10
2019-01-20T04:37:56.385Z,36.63
2019-01-20T04:40:25.618Z,39.87
2019-01-20T04:42:54.782Z,38.17
2019-01-20T04:45:23.998Z,34.50
2019-01-20T04:47:53.544Z,39.87
2019-01-20T04:50:24.260Z,39.67
2019-01-20T04:52:53.707Z,36.87
2019-01-20T04:55:23.211Z,37.20
2019-01-20T04:57:56.114Z,37.73
2019-01-20T05:00:27.054Z,38.03
2019-01-20T05:02:56.241Z,38.90
2019-01-20T05:05:25.612Z,35.93
2019-01-20T05:07:54.807Z,41.47
2019-01-20T05:10:24.352Z,37.10
2019-01-20T05:12:53.590Z,38.27
2019-01-20T05:15:24.783Z,34.80
2019-01-20T05:17:54.977Z,36.97
2019-01-20T05:20:24.482Z,38.37
2019-01-20T05:22:54.143Z,39.90
2019-01-20T05:25:23.450Z,36.83
2019-01-20T05:27:53.279Z,35.73
2019-01-20T05:30:25.173Z,38.17
2019-01-20T05:32:54.433Z,40.60
2019-01-20T05:35:23.703Z,37.17
2019-01-20T05:37:53.117Z,36.77
2019-01-20T05:40:22.939Z,33.97
2019-01-20T05:42:52.147Z,37.17
2019-01-20T05:45:23.225Z,38.57
2019-01-20T05:47:53.061Z,39.67
2019-01-20T05:50:22.310Z,35.47
2019-01-20T05:52:51.872Z,35.73
2019-01-20T05:55:21.174Z,38.27
2019-01-20T05:57:50.428Z,33.30
2019-01-20T06:00:30.948Z,34.17
2019-01-20T06:03:00.488Z,40.23
2019-01-20T06:05:29.697Z,32.97
2019-01-20T06:07:58.858Z,34.40
2019-01-20T06:10:28.722Z,33.17
2019-01-20T06:12:57.884Z,32.83
2019-01-20T06:15:27.070Z,37.13
2019-01-20T06:17:56.230Z,32.20
2019-01-20T06:20:25.416Z,34.60
2019-01-20T06:22:54.899Z,34.13
2019-01-20T06:25:24.182Z,35.93
2019-01-20T06:27:53.376Z,32.50
2019-01-20T06:30:40.878Z,35.30
2019-01-20T06:33:10.323Z,41.67
2019-01-20T06:35:39.821Z,35.67
2019-01-20T06:38:09.407Z,35.33
2019-01-20T06:40:38.983Z,36.13
2019-01-20T06:43:08.543Z,37.53
2019-01-20T06:45:38.153Z,37.37
2019-01-20T06:48:07.341Z,39.57
2019-01-20T06:50:36.504Z,41.50
2019-01-20T06:53:06.060Z,45.97
2019-01-20T06:55:35.563Z,38.47
2019-01-20T06:58:04.958Z,39.77
2019-01-20T07:00:34.438Z,39.57
2019-01-20T07:03:03.955Z,41.00
2019-01-20T07:05:33.139Z,44.03
2019-01-20T07:08:02.406Z,42.27
2019-01-20T07:10:32.219Z,39.93
2019-01-20T07:13:08.895Z,41.37
2019-01-20T07:15:32.731Z,44.30
2019-01-20T07:18:02.325Z,40.20
2019-01-20T07:20:31.561Z,49.97
2019-01-20T07:23:00.857Z,45.63
2019-01-20T07:25:30.108Z,43.03
2019-01-20T07:27:59.286Z,39.97
2019-01-20T07:30:28.458Z,36.07
2019-01-20T07:32:58.011Z,36.47
2019-01-20T07:35:27.279Z,40.23
2019-01-20T07:37:56.451Z,41.83
2019-01-20T07:40:25.738Z,37.60
2019-01-20T07:42:55.562Z,37.57
2019-01-20T07:45:24.927Z,36.70
2019-01-20T07:47:54.455Z,38.37
2019-01-20T07:50:25.505Z,38.73
2019-01-20T07:52:54.944Z,38.77
2019-01-20T07:55:24.125Z,39.63
2019-01-20T07:57:53.308Z,35.70
2019-01-20T08:00:24.530Z,38.43
2019-01-20T08:02:53.690Z,40.73
2019-01-20T08:05:23.027Z,43.40
2019-01-20T08:07:52.550Z,42.53
2019-01-20T08:10:27.137Z,43.57
2019-01-20T08:12:56.619Z,45.17
2019-01-20T08:15:26.225Z,43.30
2019-01-20T08:17:55.795Z,51.63
2019-01-20T08:20:25.664Z,42.33
2019-01-20T08:22:54.921Z,42.93
2019-01-20T08:25:24.545Z,41.80
2019-01-20T08:27:53.731Z,48.50
2019-01-20T08:30:27.568Z,45.07
2019-01-20T08:32:56.811Z,41.47
2019-01-20T08:35:25.994Z,43.03
2019-01-20T08:37:55.441Z,44.13
2019-01-20T08:40:30.140Z,39.93
2019-01-20T08:42:59.530Z,46.17
2019-01-20T08:46:01.737Z,43.43
2019-01-20T08:48:32.465Z,48.03
2019-01-20T08:51:01.838Z,50.73
2019-01-20T08:53:31.092Z,47.20
2019-01-20T08:56:01.152Z,47.90
2019-01-20T08:58:30.388Z,44.10
2019-01-20T09:00:59.629Z,43.17
2019-01-20T09:03:29.252Z,39.60
2019-01-20T09:05:58.567Z,44.50
2019-01-20T09:08:27.716Z,44.37
2019-01-20T09:10:57.197Z,48.93
2019-01-20T09:13:26.567Z,41.40
2019-01-20T09:15:56.410Z,43.30
2019-01-20T09:18:26.210Z,37.17
2019-01-20T09:20:55.719Z,42.40
2019-01-20T09:23:25.053Z,41.90
2019-01-20T09:25:54.308Z,39.93
2019-01-20T09:28:23.936Z,42.03
2019-01-20T09:30:53.145Z,39.97
2019-01-20T09:33:24.701Z,43.63
2019-01-20T09:35:53.289Z,44.37
2019-01-20T09:38:22.640Z,39.90
2019-01-20T09:40:51.909Z,43.80
2019-01-20T09:43:21.080Z,41.60
2019-01-20T09:45:51.239Z,39.03
2019-01-20T09:48:20.394Z,41.33
2019-01-20T09:50:49.572Z,42.10
2019-01-20T09:53:18.731Z,41.50
2019-01-20T09:55:47.921Z,39.40
2019-01-20T09:58:17.159Z,40.43
2019-01-20T10:00:46.407Z,39.33
2019-01-20T10:03:16.368Z,43.73
2019-01-20T10:05:45.954Z,42.47
2019-01-20T10:08:15.564Z,44.23
2019-01-20T10:10:44.791Z,42.83
2019-01-20T10:13:14.278Z,41.47
2019-01-20T10:15:43.465Z,41.63
2019-01-20T10:18:12.712Z,42.60
2019-01-20T10:20:41.937Z,42.87
2019-01-20T10:23:11.427Z,39.43
2019-01-20T10:25:40.677Z,40.27
2019-01-20T10:28:12.311Z,41.47
2019-01-20T10:30:41.478Z,39.03
2019-01-20T10:33:10.642Z,40.47
2019-01-20T10:35:47.382Z,38.83
2019-01-20T10:38:16.647Z,43.23
2019-01-20T10:40:45.999Z,40.73
2019-01-20T10:43:15.321Z,36.80
2019-01-20T10:45:44.499Z,32.57
2019-01-20T10:48:13.654Z,33.00
2019-01-20T10:50:42.824Z,28.13
2019-01-20T10:53:12.418Z,34.53
2019-01-20T10:55:41.954Z,28.83
2019-01-20T10:58:11.230Z,29.10
2019-01-20T11:00:41.596Z,29.73
2019-01-20T11:03:11.285Z,26.87
2019-01-20T11:05:40.537Z,22.97
2019-01-20T11:08:09.780Z,24.77
2019-01-20T11:10:39.959Z,25.63
2019-01-20T11:13:09.505Z,25.17
2019-01-20T11:15:39.110Z,22.97
2019-01-20T11:18:08.623Z,23.33
2019-01-20T11:20:37.813Z,21.47
2019-01-20T11:23:07.840Z,20.67
2019-01-20T11:25:39.613Z,24.50
2019-01-20T11:28:09.191Z,24.37
2019-01-20T11:30:38.697Z,25.43
2019-01-20T11:33:08.467Z,20.43
2019-01-20T11:35:38.063Z,24.97
2019-01-20T11:38:07.445Z,26.67
2019-01-20T11:40:36.605Z,20.17
2019-01-20T11:43:05.880Z,26.37
2019-01-20T11:45:36.691Z,24.03
2019-01-20T11:48:06.404Z,22.77
2019-01-20T11:50:35.778Z,22.67
2019-01-20T11:53:05.573Z,22.27
2019-01-20T11:55:35.774Z,22.63
2019-01-20T11:58:05.415Z,20.70
2019-01-20T12:00:36.846Z,21.50
2019-01-20T12:03:07.450Z,20.87
2019-01-20T12:05:38.960Z,19.77
2019-01-20T12:08:08.552Z,21.40
2019-01-20T12:10:37.743Z,21.90
2019-01-20T12:13:09.086Z,21.93
2019-01-20T12:15:38.266Z,20.93
2019-01-20T12:18:07.849Z,21.80
2019-01-20T12:20:37.378Z,20.60
2019-01-20T12:23:06.544Z,29.27
2019-01-20T12:25:35.952Z,21.50
2019-01-20T12:28:05.483Z,22.03
2019-01-20T12:30:36.386Z,22.80
2019-01-20T12:33:06.340Z,20.70
2019-01-20T12:35:35.585Z,20.73
2019-01-20T12:38:04.809Z,20.97
2019-01-20T12:40:37.113Z,21.50
2019-01-20T12:43:06.267Z,21.77
2019-01-20T12:45:35.804Z,20.07
2019-01-20T12:48:06.166Z,20.77
2019-01-20T12:50:35.448Z,20.93
2019-01-20T12:53:05.403Z,18.23
2019-01-20T12:55:35.096Z,19.83
2019-01-20T12:58:04.523Z,20.20
2019-01-20T13:00:34.349Z,18.77
2019-01-20T13:03:03.563Z,23.07
2019-01-20T13:05:33.074Z,20.73
2019-01-20T13:08:02.575Z,17.93
2019-01-20T13:10:32.204Z,18.30
2019-01-20T13:13:01.759Z,18.30
2019-01-20T13:15:31.303Z,17.33
2019-01-20T13:18:00.780Z,19.80
2019-01-20T13:20:29.933Z,18.00
2019-01-20T13:22:59.092Z,16.10
2019-01-20T13:25:30.035Z,19.57
2019-01-20T13:27:59.213Z,18.53
2019-01-20T13:30:29.336Z,25.17
2019-01-20T13:32:58.478Z,21.57
2019-01-20T13:35:28.475Z,20.03
2019-01-20T13:38:06.581Z,20.10
2019-01-20T13:40:42.089Z,18.17
2019-01-20T13:43:11.232Z,19.03
2019-01-20T13:45:40.438Z,22.93
2019-01-20T13:48:09.577Z,19.53
2019-01-20T13:50:38.772Z,24.63
2019-01-20T13:53:07.916Z,26.67
2019-01-20T13:55:37.091Z,30.33
2019-01-20T13:58:06.269Z,26.10
2019-01-20T14:00:35.522Z,26.87
2019-01-20T14:03:04.692Z,27.30
2019-01-20T14:05:33.916Z,27.77
2019-01-20T14:08:03.164Z,28.23
2019-01-20T14:10:32.389Z,26.03
2019-01-20T14:13:01.684Z,28.47
2019-01-20T14:15:31.557Z,25.43
2019-01-20T14:18:00.707Z,25.87
2019-01-20T14:20:29.877Z,23.67
2019-01-20T14:22:59.058Z,26.33
2019-01-20T14:25:28.522Z,23.63
2019-01-20T14:27:58.057Z,22.43
2019-01-20T14:30:29.460Z,24.97
2019-01-20T14:32:58.821Z,27.27
2019-01-20T14:35:27.979Z,25.47
2019-01-20T14:37:57.200Z,32.20
2019-01-20T14:40:26.450Z,31.97
2019-01-20T14:42:56.457Z,31.03
2019-01-20T14:45:25.634Z,31.83
2019-01-20T14:47:54.811Z,35.80
2019-01-20T14:50:25.461Z,35.20
2019-01-20T14:52:55.020Z,36.03
2019-01-20T14:55:25.046Z,42.93
2019-01-20T14:57:54.232Z,36.87
2019-01-20T15:00:29.586Z,36.33
2019-01-20T15:02:59.470Z,38.57
2019-01-20T15:05:28.630Z,39.93
2019-01-20T15:07:58.012Z,37.87
2019-01-20T15:10:27.663Z,38.37
2019-01-20T15:12:57.246Z,43.23
2019-01-20T15:15:46.129Z,41.60
2019-01-20T15:18:15.419Z,41.70
2019-01-20T15:20:45.270Z,40.33
2019-01-20T15:23:14.414Z,39.07
2019-01-20T15:25:43.757Z,40.70
2019-01-20T15:28:13.373Z,42.07
2019-01-20T15:30:43.022Z,43.67
2019-01-20T15:33:12.166Z,43.37
2019-01-20T15:35:42.100Z,45.23
2019-01-20T15:38:11.550Z,42.93
2019-01-20T15:40:40.922Z,51.07
2019-01-20T15:43:10.079Z,46.10
2019-01-20T15:45:39.695Z,42.83
2019-01-20T15:48:09.405Z,44.50
2019-01-20T15:50:39.021Z,45.37
2019-01-20T15:53:08.221Z,47.43
2019-01-20T15:55:37.487Z,56.63
2019-01-20T15:58:06.660Z,54.30
2019-01-20T16:00:36.293Z,58.43
2019-01-20T16:03:06.101Z,54.70
2019-01-20T16:05:35.627Z,55.00
2019-01-20T16:08:05.225Z,51.07
2019-01-20T16:10:34.419Z,48.17
2019-01-20T16:13:03.625Z,50.00
2019-01-20T16:15:35.187Z,52.63
2019-01-20T16:18:23.519Z,53.57
2019-01-20T16:20:52.869Z,52.30
2019-01-20T16:23:22.570Z,56.07
2019-01-20T16:25:51.947Z,53.67
2019-01-20T16:28:21.280Z,60.30
2019-01-20T16:30:50.893Z,58.33
2019-01-20T16:33:24.811Z,63.40
2019-01-20T16:35:51.358Z,57.77
2019-01-20T16:38:20.569Z,66.23
2019-01-20T16:40:50.970Z,61.97
2019-01-20T16:43:21.676Z,63.10
2019-01-20T16:45:50.860Z,67.93
2019-01-20T16:48:20.271Z,60.47
2019-01-20T16:50:49.559Z,67.40
2019-01-20T16:53:18.802Z,65.67
2019-01-20T16:55:47.988Z,64.37
2019-01-20T16:58:17.171Z,71.60
2019-01-20T17:00:47.237Z,69.60
2019-01-20T17:03:17.333Z,70.13
2019-01-20T17:05:46.641Z,72.63
2019-01-20T17:08:16.250Z,76.20
2019-01-20T17:10:45.721Z,61.90
2019-01-20T17:13:15.569Z,69.40
2019-01-20T17:15:46.034Z,69.27
2019-01-20T17:18:16.662Z,58.80
2019-01-20T17:20:46.011Z,51.13
2019-01-20T17:23:15.798Z,58.17
2019-01-20T17:25:45.855Z,59.53
2019-01-20T17:28:15.041Z,58.07
2019-01-20T17:30:44.540Z,63.50
2019-01-20T17:33:14.526Z,58.00
2019-01-20T17:35:43.786Z,54.67
2019-01-20T17:38:13.132Z,58.90
2019-01-20T17:40:42.473Z,62.13
2019-01-20T17:43:11.759Z,60.03
2019-01-20T17:45:49.624Z,59.73
2019-01-20T17:48:14.346Z,57.20
2019-01-20T17:50:44.784Z,60.47
2019-01-20T17:53:14.389Z,66.53
2019-01-20T17:55:43.805Z,61.40
2019-01-20T17:58:13.016Z,61.67
2019-01-20T18:01:10.853Z,66.17
2019-01-20T18:03:47.175Z,61.90
2019-01-20T18:06:17.586Z,69.73
2019-01-20T18:08:49.099Z,69.53
2019-01-20T18:11:18.298Z,77.20
2019-01-20T18:13:49.001Z,70.13
2019-01-20T18:16:23.949Z,66.53
2019-01-20T18:18:53.346Z,71.63
2019-01-20T18:21:22.636Z,67.87
2019-01-20T18:23:52.221Z,71.77
2019-01-20T18:26:21.763Z,84.43
2019-01-20T18:28:51.419Z,80.10
2019-01-20T18:31:21.100Z,76.97
2019-01-20T18:33:50.415Z,69.80
2019-01-20T18:36:19.705Z,71.60
2019-01-20T18:38:50.753Z,74.37
2019-01-20T18:41:19.943Z,80.03
2019-01-20T18:43:49.491Z,66.60
2019-01-20T18:46:19.041Z,67.93
2019-01-20T18:48:48.599Z,64.93
2019-01-20T18:51:17.875Z,73.63
2019-01-20T18:53:47.047Z,61.87
2019-01-20T18:56:16.336Z,78.50
2019-01-20T18:58:45.483Z,85.37
2019-01-20T19:01:16.211Z,93.27
2019-01-20T19:03:45.546Z,88.93
2019-01-20T19:06:15.408Z,80.13
2019-01-20T19:08:46.808Z,74.13
2019-01-20T19:11:15.986Z,68.90
2019-01-20T19:13:45.582Z,66.83
2019-01-20T19:16:15.122Z,65.67
2019-01-20T19:18:44.454Z,55.17
2019-01-20T19:21:13.998Z,55.70
2019-01-20T19:23:43.200Z,53.50
2019-01-20T19:26:12.422Z,53.30
2019-01-20T19:28:41.670Z,52.07
2019-01-20T19:31:20.753Z,53.77
2019-01-20T19:33:50.944Z,50.73
2019-01-20T19:36:20.097Z,48.83
2019-01-20T19:38:49.263Z,51.67
2019-01-20T19:41:18.447Z,55.33
2019-01-20T19:43:47.996Z,48.63
2019-01-20T19:46:17.455Z,45.93
2019-01-20T19:48:46.608Z,48.60
2019-01-20T19:51:15.818Z,48.07
2019-01-20T19:53:45.059Z,48.83
2019-01-20T19:56:14.245Z,46.77
2019-01-20T19:58:43.433Z,45.87
2019-01-20T20:01:12.643Z,47.30
2019-01-20T20:03:41.829Z,45.83
2019-01-20T20:06:11.067Z,47.30
2019-01-20T20:08:40.235Z,47.83
2019-01-20T20:11:09.786Z,47.80
2019-01-20T20:13:39.027Z,46.40
2019-01-20T20:16:08.317Z,52.67
2019-01-20T20:18:37.825Z,54.70
2019-01-20T20:21:07.055Z,45.07
2019-01-20T20:23:36.332Z,48.33
2019-01-20T20:26:05.970Z,49.73
2019-01-20T20:28:35.140Z,46.60
2019-01-20T20:31:04.531Z,46.13
2019-01-20T20:33:34.212Z,48.00
2019-01-20T20:36:03.717Z,48.87
2019-01-20T20:38:33.248Z,44.53
2019-01-20T20:41:02.724Z,51.23
2019-01-20T20:43:31.920Z,55.90
2019-01-20T20:46:01.100Z,42.63
2019-01-20T20:48:30.640Z,55.03
2019-01-20T20:50:59.801Z,49.50
2019-01-20T20:53:29.356Z,52.33
2019-01-20T20:55:58.519Z,49.20
2019-01-20T20:58:27.665Z,49.90
2019-01-20T21:00:57.575Z,54.07
2019-01-20T21:03:32.598Z,50.23
2019-01-20T21:06:02.149Z,55.13
2019-01-20T21:08:31.316Z,50.87
2019-01-20T21:11:00.553Z,50.03
2019-01-20T21:13:29.708Z,48.90
2019-01-20T21:15:59.017Z,50.63
2019-01-20T21:18:28.556Z,51.77
2019-01-20T21:20:58.060Z,48.10
2019-01-20T21:23:27.593Z,49.73
2019-01-20T21:25:57.434Z,57.97
2019-01-20T21:28:26.677Z,54.10
2019-01-20T21:30:56.266Z,52.33
2019-01-20T21:33:25.827Z,44.80
2019-01-20T21:35:55.305Z,46.80
2019-01-20T21:38:24.925Z,48.20
2019-01-20T21:40:54.071Z,44.73
2019-01-20T21:43:23.246Z,50.93
2019-01-20T21:45:52.414Z,46.63
2019-01-20T21:48:21.671Z,44.10
2019-01-20T21:50:50.923Z,40.43
2019-01-20T21:53:20.102Z,44.63
2019-01-20T21:55:49.276Z,48.83
2019-01-20T21:58:18.503Z,45.20
2019-01-20T22:00:47.681Z,42.77
2019-01-20T22:03:16.907Z,43.03
2019-01-20T22:05:46.054Z,43.70
2019-01-20T22:08:15.219Z,42.00
2019-01-20T22:10:44.774Z,41.93
2019-01-20T22:13:14.354Z,43.17
2019-01-20T22:15:43.867Z,39.33
2019-01-20T22:18:13.069Z,42.37
2019-01-20T22:20:42.251Z,38.70
2019-01-20T22:23:11.561Z,42.17
2019-01-20T22:25:41.060Z,45.00
2019-01-20T22:28:10.479Z,36.77
2019-01-20T22:30:39.774Z,38.97
2019-01-20T22:33:09.012Z,36.87
2019-01-20T22:35:38.465Z,35.87
2019-01-20T22:38:08.595Z,36.33
2019-01-20T22:40:38.196Z,36.70
2019-01-20T22:43:07.358Z,39.17
2019-01-20T22:45:36.532Z,38.57
2019-01-20T22:48:05.982Z,51.30
2019-01-20T22:50:35.150Z,45.03
2019-01-20T22:53:04.342Z,42.80
2019-01-20T22:55:33.493Z,40.47
2019-01-20T22:58:03.300Z,42.10
2019-01-20T23:00:55.953Z,40.23
2019-01-20T23:03:25.389Z,41.33
2019-01-20T23:05:55.895Z,45.17
2019-01-20T23:08:25.178Z,38.43
2019-01-20T23:10:54.469Z,43.13
2019-01-20T23:13:23.962Z,35.93
2019-01-20T23:15:53.277Z,41.63
2019-01-20T23:18:22.529Z,40.03
2019-01-20T23:20:51.707Z,38.40
2019-01-20T23:23:21.033Z,45.00
2019-01-20T23:25:50.553Z,36.90
2019-01-20T23:28:19.785Z,38.33
2019-01-20T23:30:48.954Z,39.93
2019-01-20T23:33:18.103Z,40.40
2019-01-20T23:35:47.272Z,41.37
2019-01-20T23:38:16.439Z,36.37
2019-01-20T23:40:46.064Z,36.07
2019-01-20T23:43:15.231Z,38.93
2019-01-20T23:45:44.741Z,39.37
2019-01-20T23:48:14.252Z,37.47
2019-01-20T23:50:43.410Z,38.50
2019-01-20T23:53:12.859Z,36.93
2019-01-20T23:55:42.103Z,38.10
2019-01-20T23:58:11.633Z,37.73
